sensor_id;sensor_type;location;lat;lon;timestamp;temperature;humidity
52285;DHT22;38238;53.304;6.606;2022-09-02T00:00:46;16.00;97.50
52285;DHT22;38238;53.304;6.606;2022-09-02T00:03:12;16.00;97.40
52285;DHT22;38238;53.304;6.606;2022-09-02T00:05:38;16.00;97.40
52285;DHT22;38238;53.304;6.606;2022-09-02T00:08:05;16.00;97.40
52285;DHT22;38238;53.304;6.606;2022-09-02T00:10:32;16.00;97.40
52285;DHT22;38238;53.304;6.606;2022-09-02T00:12:59;15.90;97.30
52285;DHT22;38238;53.304;6.606;2022-09-02T00:15:24;15.90;97.40
52285;DHT22;38238;53.304;6.606;2022-09-02T00:17:50;15.90;97.40
52285;DHT22;38238;53.304;6.606;2022-09-02T00:20:17;15.90;97.40
52285;DHT22;38238;53.304;6.606;2022-09-02T00:22:43;15.80;97.30
52285;DHT22;38238;53.304;6.606;2022-09-02T00:25:09;15.80;97.30
52285;DHT22;38238;53.304;6.606;2022-09-02T00:27:35;15.80;97.40
52285;DHT22;38238;53.304;6.606;2022-09-02T00:30:01;15.80;97.30
52285;DHT22;38238;53.304;6.606;2022-09-02T00:32:26;15.80;97.40
52285;DHT22;38238;53.304;6.606;2022-09-02T00:34:52;15.80;97.30
52285;DHT22;38238;53.304;6.606;2022-09-02T00:37:17;15.80;97.30
52285;DHT22;38238;53.304;6.606;2022-09-02T00:39:44;15.80;97.30
52285;DHT22;38238;53.304;6.606;2022-09-02T00:42:09;15.70;97.30
52285;DHT22;38238;53.304;6.606;2022-09-02T00:44:35;15.70;97.30
52285;DHT22;38238;53.304;6.606;2022-09-02T00:47:01;15.70;97.30
52285;DHT22;38238;53.304;6.606;2022-09-02T00:49:30;15.60;97.30
52285;DHT22;38238;53.304;6.606;2022-09-02T00:52:03;15.60;97.30
52285;DHT22;38238;53.304;6.606;2022-09-02T00:54:31;15.60;97.30
52285;DHT22;38238;53.304;6.606;2022-09-02T00:57:00;15.60;97.30
52285;DHT22;38238;53.304;6.606;2022-09-02T01:02:02;15.60;97.40
52285;DHT22;38238;53.304;6.606;2022-09-02T01:04:28;15.50;97.40
52285;DHT22;38238;53.304;6.606;2022-09-02T01:06:54;15.50;97.40
52285;DHT22;38238;53.304;6.606;2022-09-02T01:09:20;15.50;97.40
52285;DHT22;38238;53.304;6.606;2022-09-02T01:11:48;15.50;97.40
52285;DHT22;38238;53.304;6.606;2022-09-02T01:14:16;15.40;97.40
52285;DHT22;38238;53.304;6.606;2022-09-02T01:16:51;15.40;97.50
52285;DHT22;38238;53.304;6.606;2022-09-02T01:19:23;15.40;97.50
52285;DHT22;38238;53.304;6.606;2022-09-02T01:21:51;15.30;97.60
52285;DHT22;38238;53.304;6.606;2022-09-02T01:24:18;15.30;97.60
52285;DHT22;38238;53.304;6.606;2022-09-02T01:26:44;15.20;97.70
52285;DHT22;38238;53.304;6.606;2022-09-02T01:29:10;15.20;97.70
52285;DHT22;38238;53.304;6.606;2022-09-02T01:31:36;15.20;97.70
52285;DHT22;38238;53.304;6.606;2022-09-02T01:34:02;15.10;97.70
52285;DHT22;38238;53.304;6.606;2022-09-02T01:36:32;15.10;97.80
52285;DHT22;38238;53.304;6.606;2022-09-02T01:38:58;15.00;97.90
52285;DHT22;38238;53.304;6.606;2022-09-02T01:41:24;15.00;97.90
52285;DHT22;38238;53.304;6.606;2022-09-02T01:43:50;14.90;98.30
52285;DHT22;38238;53.304;6.606;2022-09-02T01:46:15;14.90;98.10
52285;DHT22;38238;53.304;6.606;2022-09-02T01:48:41;14.90;98.20
52285;DHT22;38238;53.304;6.606;2022-09-02T01:51:07;14.90;98.20
52285;DHT22;38238;53.304;6.606;2022-09-02T01:53:32;14.90;98.30
52285;DHT22;38238;53.304;6.606;2022-09-02T01:55:59;14.90;98.30
52285;DHT22;38238;53.304;6.606;2022-09-02T01:58:25;14.90;98.30
52285;DHT22;38238;53.304;6.606;2022-09-02T02:00:51;14.80;98.30
52285;DHT22;38238;53.304;6.606;2022-09-02T02:03:17;14.80;98.30
52285;DHT22;38238;53.304;6.606;2022-09-02T02:05:44;14.80;98.40
52285;DHT22;38238;53.304;6.606;2022-09-02T02:08:09;14.70;98.40
52285;DHT22;38238;53.304;6.606;2022-09-02T02:10:35;14.70;98.50
52285;DHT22;38238;53.304;6.606;2022-09-02T02:13:02;14.70;98.50
52285;DHT22;38238;53.304;6.606;2022-09-02T02:15:28;14.60;98.50
52285;DHT22;38238;53.304;6.606;2022-09-02T02:17:53;14.60;98.60
52285;DHT22;38238;53.304;6.606;2022-09-02T02:20:20;14.50;98.70
52285;DHT22;38238;53.304;6.606;2022-09-02T02:22:46;14.50;98.80
52285;DHT22;38238;53.304;6.606;2022-09-02T02:25:14;14.50;98.80
52285;DHT22;38238;53.304;6.606;2022-09-02T02:27:41;14.50;98.90
52285;DHT22;38238;53.304;6.606;2022-09-02T02:30:08;14.40;98.90
52285;DHT22;38238;53.304;6.606;2022-09-02T02:32:34;14.40;99.00
52285;DHT22;38238;53.304;6.606;2022-09-02T02:35:00;14.40;99.00
52285;DHT22;38238;53.304;6.606;2022-09-02T02:37:27;14.40;99.10
52285;DHT22;38238;53.304;6.606;2022-09-02T02:39:52;14.30;99.10
52285;DHT22;38238;53.304;6.606;2022-09-02T02:42:18;14.30;99.20
52285;DHT22;38238;53.304;6.606;2022-09-02T02:44:45;14.30;99.30
52285;DHT22;38238;53.304;6.606;2022-09-02T02:47:10;14.20;99.30
52285;DHT22;38238;53.304;6.606;2022-09-02T02:49:41;14.20;99.40
52285;DHT22;38238;53.304;6.606;2022-09-02T02:52:08;14.20;99.50
52285;DHT22;38238;53.304;6.606;2022-09-02T02:54:33;14.20;99.50
52285;DHT22;38238;53.304;6.606;2022-09-02T02:56:59;14.10;99.60
52285;DHT22;38238;53.304;6.606;2022-09-02T02:59:25;14.10;99.70
52285;DHT22;38238;53.304;6.606;2022-09-02T03:01:51;14.10;99.70
52285;DHT22;38238;53.304;6.606;2022-09-02T03:04:17;14.10;99.70
52285;DHT22;38238;53.304;6.606;2022-09-02T03:06:43;14.10;99.80
52285;DHT22;38238;53.304;6.606;2022-09-02T03:09:09;14.10;99.80
52285;DHT22;38238;53.304;6.606;2022-09-02T03:11:35;14.10;99.90
52285;DHT22;38238;53.304;6.606;2022-09-02T03:14:00;14.00;99.90
52285;DHT22;38238;53.304;6.606;2022-09-02T03:16:26;14.10;99.90
52285;DHT22;38238;53.304;6.606;2022-09-02T03:18:52;14.00;99.90
52285;DHT22;38238;53.304;6.606;2022-09-02T03:21:18;14.00;99.90
52285;DHT22;38238;53.304;6.606;2022-09-02T03:23:45;14.00;99.90
52285;DHT22;38238;53.304;6.606;2022-09-02T03:26:13;14.00;99.90
52285;DHT22;38238;53.304;6.606;2022-09-02T03:28:40;13.90;99.90
52285;DHT22;38238;53.304;6.606;2022-09-02T03:31:06;13.90;99.90
52285;DHT22;38238;53.304;6.606;2022-09-02T03:33:32;13.90;99.90
52285;DHT22;38238;53.304;6.606;2022-09-02T03:35:58;13.80;99.90
52285;DHT22;38238;53.304;6.606;2022-09-02T03:38:24;13.80;99.90
52285;DHT22;38238;53.304;6.606;2022-09-02T03:40:50;13.80;99.90
52285;DHT22;38238;53.304;6.606;2022-09-02T03:43:16;13.80;99.90
52285;DHT22;38238;53.304;6.606;2022-09-02T03:45:41;13.80;99.90
52285;DHT22;38238;53.304;6.606;2022-09-02T03:48:10;13.80;99.90
52285;DHT22;38238;53.304;6.606;2022-09-02T03:50:39;13.80;99.90
52285;DHT22;38238;53.304;6.606;2022-09-02T03:53:07;13.80;99.90
52285;DHT22;38238;53.304;6.606;2022-09-02T03:55:35;13.80;99.90
52285;DHT22;38238;53.304;6.606;2022-09-02T03:58:01;13.80;99.90
52285;DHT22;38238;53.304;6.606;2022-09-02T04:00:27;13.80;99.90
52285;DHT22;38238;53.304;6.606;2022-09-02T04:02:54;13.80;99.90
52285;DHT22;38238;53.304;6.606;2022-09-02T04:05:21;13.80;99.90
52285;DHT22;38238;53.304;6.606;2022-09-02T04:07:48;13.80;99.90
52285;DHT22;38238;53.304;6.606;2022-09-02T04:10:18;13.80;99.90
52285;DHT22;38238;53.304;6.606;2022-09-02T04:12:43;13.80;99.90
52285;DHT22;38238;53.304;6.606;2022-09-02T04:15:10;13.70;99.90
52285;DHT22;38238;53.304;6.606;2022-09-02T04:17:38;13.70;99.90
52285;DHT22;38238;53.304;6.606;2022-09-02T04:20:06;13.70;99.90
52285;DHT22;38238;53.304;6.606;2022-09-02T04:22:33;13.70;99.90
52285;DHT22;38238;53.304;6.606;2022-09-02T04:24:59;13.70;99.90
52285;DHT22;38238;53.304;6.606;2022-09-02T04:27:25;13.70;99.90
52285;DHT22;38238;53.304;6.606;2022-09-02T04:29:51;13.70;99.90
52285;DHT22;38238;53.304;6.606;2022-09-02T04:32:16;13.70;99.90
52285;DHT22;38238;53.304;6.606;2022-09-02T04:34:42;13.70;99.90
52285;DHT22;38238;53.304;6.606;2022-09-02T04:37:08;13.70;99.90
52285;DHT22;38238;53.304;6.606;2022-09-02T04:39:34;13.60;99.90
52285;DHT22;38238;53.304;6.606;2022-09-02T04:42:00;13.60;99.90
52285;DHT22;38238;53.304;6.606;2022-09-02T04:44:25;13.50;99.90
52285;DHT22;38238;53.304;6.606;2022-09-02T04:46:51;13.50;99.90
52285;DHT22;38238;53.304;6.606;2022-09-02T04:49:17;13.40;99.90
52285;DHT22;38238;53.304;6.606;2022-09-02T04:51:43;13.40;99.90
52285;DHT22;38238;53.304;6.606;2022-09-02T04:54:09;13.40;99.90
52285;DHT22;38238;53.304;6.606;2022-09-02T04:56:35;13.40;99.90
52285;DHT22;38238;53.304;6.606;2022-09-02T04:59:02;13.40;99.90
52285;DHT22;38238;53.304;6.606;2022-09-02T05:01:31;13.40;99.90
52285;DHT22;38238;53.304;6.606;2022-09-02T05:03:57;13.40;99.90
52285;DHT22;38238;53.304;6.606;2022-09-02T05:06:26;13.40;99.90
52285;DHT22;38238;53.304;6.606;2022-09-02T05:08:53;13.40;99.90
52285;DHT22;38238;53.304;6.606;2022-09-02T05:11:22;13.40;99.90
52285;DHT22;38238;53.304;6.606;2022-09-02T05:13:50;13.40;99.90
52285;DHT22;38238;53.304;6.606;2022-09-02T05:16:28;13.40;99.90
52285;DHT22;38238;53.304;6.606;2022-09-02T05:18:54;13.40;99.90
52285;DHT22;38238;53.304;6.606;2022-09-02T05:21:21;13.40;99.90
52285;DHT22;38238;53.304;6.606;2022-09-02T05:23:47;13.50;99.90
52285;DHT22;38238;53.304;6.606;2022-09-02T05:26:13;13.50;99.90
52285;DHT22;38238;53.304;6.606;2022-09-02T05:28:39;13.40;99.90
52285;DHT22;38238;53.304;6.606;2022-09-02T05:31:11;13.40;99.90
52285;DHT22;38238;53.304;6.606;2022-09-02T05:33:38;13.50;99.90
52285;DHT22;38238;53.304;6.606;2022-09-02T05:36:07;13.50;99.90
52285;DHT22;38238;53.304;6.606;2022-09-02T05:38:33;13.50;99.90
52285;DHT22;38238;53.304;6.606;2022-09-02T05:41:04;13.50;99.90
52285;DHT22;38238;53.304;6.606;2022-09-02T05:43:31;13.50;99.90
52285;DHT22;38238;53.304;6.606;2022-09-02T05:45:57;13.50;99.90
52285;DHT22;38238;53.304;6.606;2022-09-02T05:48:24;13.60;99.90
52285;DHT22;38238;53.304;6.606;2022-09-02T05:51:08;13.60;99.90
52285;DHT22;38238;53.304;6.606;2022-09-02T05:53:33;13.60;99.90
52285;DHT22;38238;53.304;6.606;2022-09-02T05:56:03;13.70;99.90
52285;DHT22;38238;53.304;6.606;2022-09-02T05:58:29;13.70;99.90
52285;DHT22;38238;53.304;6.606;2022-09-02T06:00:55;13.70;99.90
52285;DHT22;38238;53.304;6.606;2022-09-02T06:03:21;13.80;99.90
52285;DHT22;38238;53.304;6.606;2022-09-02T06:05:57;13.80;99.90
52285;DHT22;38238;53.304;6.606;2022-09-02T06:08:23;13.90;99.90
52285;DHT22;38238;53.304;6.606;2022-09-02T06:10:50;13.90;99.90
52285;DHT22;38238;53.304;6.606;2022-09-02T06:13:15;14.00;99.90
52285;DHT22;38238;53.304;6.606;2022-09-02T06:15:47;14.00;99.90
52285;DHT22;38238;53.304;6.606;2022-09-02T06:18:14;14.10;99.90
52285;DHT22;38238;53.304;6.606;2022-09-02T06:20:41;14.10;99.90
52285;DHT22;38238;53.304;6.606;2022-09-02T06:23:07;14.20;99.90
52285;DHT22;38238;53.304;6.606;2022-09-02T06:25:37;14.30;99.90
52285;DHT22;38238;53.304;6.606;2022-09-02T06:28:03;14.30;99.90
52285;DHT22;38238;53.304;6.606;2022-09-02T06:30:29;14.40;99.90
52285;DHT22;38238;53.304;6.606;2022-09-02T06:32:55;14.40;99.90
52285;DHT22;38238;53.304;6.606;2022-09-02T06:35:21;14.50;99.90
52285;DHT22;38238;53.304;6.606;2022-09-02T06:37:47;14.50;99.90
52285;DHT22;38238;53.304;6.606;2022-09-02T06:40:14;14.60;99.90
52285;DHT22;38238;53.304;6.606;2022-09-02T06:42:40;14.70;99.90
52285;DHT22;38238;53.304;6.606;2022-09-02T06:45:07;14.80;99.90
52285;DHT22;38238;53.304;6.606;2022-09-02T06:47:33;14.90;99.90
52285;DHT22;38238;53.304;6.606;2022-09-02T06:49:59;14.90;99.90
52285;DHT22;38238;53.304;6.606;2022-09-02T06:52:25;15.00;99.90
52285;DHT22;38238;53.304;6.606;2022-09-02T06:54:51;15.10;99.90
52285;DHT22;38238;53.304;6.606;2022-09-02T06:57:19;15.10;99.90
52285;DHT22;38238;53.304;6.606;2022-09-02T06:59:45;15.20;99.90
52285;DHT22;38238;53.304;6.606;2022-09-02T07:02:11;15.30;99.90
52285;DHT22;38238;53.304;6.606;2022-09-02T07:04:37;15.40;99.90
52285;DHT22;38238;53.304;6.606;2022-09-02T07:07:22;15.50;99.90
52285;DHT22;38238;53.304;6.606;2022-09-02T07:09:48;15.50;99.90
52285;DHT22;38238;53.304;6.606;2022-09-02T07:12:14;15.60;99.90
52285;DHT22;38238;53.304;6.606;2022-09-02T07:14:42;15.70;99.90
52285;DHT22;38238;53.304;6.606;2022-09-02T07:17:10;15.80;99.90
52285;DHT22;38238;53.304;6.606;2022-09-02T07:19:37;15.90;99.90
52285;DHT22;38238;53.304;6.606;2022-09-02T07:22:04;15.90;99.90
52285;DHT22;38238;53.304;6.606;2022-09-02T07:24:30;16.00;99.90
52285;DHT22;38238;53.304;6.606;2022-09-02T07:26:55;16.10;99.90
52285;DHT22;38238;53.304;6.606;2022-09-02T07:29:22;16.20;99.90
52285;DHT22;38238;53.304;6.606;2022-09-02T07:31:48;16.30;99.90
52285;DHT22;38238;53.304;6.606;2022-09-02T07:34:15;16.30;99.90
52285;DHT22;38238;53.304;6.606;2022-09-02T07:36:42;16.30;99.90
52285;DHT22;38238;53.304;6.606;2022-09-02T07:39:10;16.40;99.90
52285;DHT22;38238;53.304;6.606;2022-09-02T07:41:38;16.50;99.90
52285;DHT22;38238;53.304;6.606;2022-09-02T07:44:05;16.50;99.90
52285;DHT22;38238;53.304;6.606;2022-09-02T07:46:32;16.60;99.90
52285;DHT22;38238;53.304;6.606;2022-09-02T07:49:00;16.60;99.90
52285;DHT22;38238;53.304;6.606;2022-09-02T07:51:27;16.60;99.90
52285;DHT22;38238;53.304;6.606;2022-09-02T07:53:53;16.70;99.90
52285;DHT22;38238;53.304;6.606;2022-09-02T07:56:19;16.80;99.90
52285;DHT22;38238;53.304;6.606;2022-09-02T07:58:44;16.80;99.90
52285;DHT22;38238;53.304;6.606;2022-09-02T08:01:11;16.90;99.90
52285;DHT22;38238;53.304;6.606;2022-09-02T08:03:39;16.90;99.90
52285;DHT22;38238;53.304;6.606;2022-09-02T08:06:05;17.00;99.90
52285;DHT22;38238;53.304;6.606;2022-09-02T08:08:31;17.10;99.90
52285;DHT22;38238;53.304;6.606;2022-09-02T08:10:57;17.10;99.90
52285;DHT22;38238;53.304;6.606;2022-09-02T08:13:23;17.20;99.80
52285;DHT22;38238;53.304;6.606;2022-09-02T08:15:49;17.20;99.70
52285;DHT22;38238;53.304;6.606;2022-09-02T08:18:15;17.30;99.70
52285;DHT22;38238;53.304;6.606;2022-09-02T08:20:41;17.40;99.70
52285;DHT22;38238;53.304;6.606;2022-09-02T08:23:07;17.40;99.60
52285;DHT22;38238;53.304;6.606;2022-09-02T08:25:34;17.50;99.70
52285;DHT22;38238;53.304;6.606;2022-09-02T08:28:00;17.60;99.50
52285;DHT22;38238;53.304;6.606;2022-09-02T08:30:26;17.70;99.40
52285;DHT22;38238;53.304;6.606;2022-09-02T08:32:52;17.70;99.30
52285;DHT22;38238;53.304;6.606;2022-09-02T08:35:18;17.80;99.10
52285;DHT22;38238;53.304;6.606;2022-09-02T08:37:44;17.80;99.00
52285;DHT22;38238;53.304;6.606;2022-09-02T08:40:16;17.90;99.00
52285;DHT22;38238;53.304;6.606;2022-09-02T08:42:48;18.00;98.80
52285;DHT22;38238;53.304;6.606;2022-09-02T08:45:31;18.10;98.70
52285;DHT22;38238;53.304;6.606;2022-09-02T08:48:14;18.20;98.50
52285;DHT22;38238;53.304;6.606;2022-09-02T08:50:44;18.30;98.40
52285;DHT22;38238;53.304;6.606;2022-09-02T08:53:39;18.40;98.20
52285;DHT22;38238;53.304;6.606;2022-09-02T08:56:12;18.60;97.90
52285;DHT22;38238;53.304;6.606;2022-09-02T08:58:44;18.60;97.50
52285;DHT22;38238;53.304;6.606;2022-09-02T09:01:49;18.70;97.40
52285;DHT22;38238;53.304;6.606;2022-09-02T09:04:33;18.80;97.30
52285;DHT22;38238;53.304;6.606;2022-09-02T09:18:00;19.30;96.40
52285;DHT22;38238;53.304;6.606;2022-09-02T09:20:32;19.40;96.20
52285;DHT22;38238;53.304;6.606;2022-09-02T09:23:14;19.50;96.10
52285;DHT22;38238;53.304;6.606;2022-09-02T09:25:44;19.60;96.00
52285;DHT22;38238;53.304;6.606;2022-09-02T09:28:11;19.80;95.90
52285;DHT22;38238;53.304;6.606;2022-09-02T09:30:37;20.30;95.80
52285;DHT22;38238;53.304;6.606;2022-09-02T09:33:04;21.30;95.10
52285;DHT22;38238;53.304;6.606;2022-09-02T09:35:51;22.30;94.20
52285;DHT22;38238;53.304;6.606;2022-09-02T09:38:29;23.20;93.00
52285;DHT22;38238;53.304;6.606;2022-09-02T09:41:20;23.80;92.00
52285;DHT22;38238;53.304;6.606;2022-09-02T09:43:46;24.30;91.00
52285;DHT22;38238;53.304;6.606;2022-09-02T09:46:27;24.80;90.70
52285;DHT22;38238;53.304;6.606;2022-09-02T09:48:54;25.00;89.80
52285;DHT22;38238;53.304;6.606;2022-09-02T09:51:19;25.20;89.60
52285;DHT22;38238;53.304;6.606;2022-09-02T09:53:45;25.40;89.10
52285;DHT22;38238;53.304;6.606;2022-09-02T09:58:45;25.70;87.50
52285;DHT22;38238;53.304;6.606;2022-09-02T10:01:18;25.90;86.30
52285;DHT22;38238;53.304;6.606;2022-09-02T10:06:34;26.30;85.90
52285;DHT22;38238;53.304;6.606;2022-09-02T10:11:33;26.40;84.20
52285;DHT22;38238;53.304;6.606;2022-09-02T10:30:20;26.60;80.40
52285;DHT22;38238;53.304;6.606;2022-09-02T10:33:12;26.50;79.70
52285;DHT22;38238;53.304;6.606;2022-09-02T10:36:09;26.50;78.70
52285;DHT22;38238;53.304;6.606;2022-09-02T10:38:43;26.50;78.50
52285;DHT22;38238;53.304;6.606;2022-09-02T10:55:15;26.60;76.40
52285;DHT22;38238;53.304;6.606;2022-09-02T10:57:53;26.80;76.30
52285;DHT22;38238;53.304;6.606;2022-09-02T11:00:21;26.90;75.70
52285;DHT22;38238;53.304;6.606;2022-09-02T11:03:12;26.90;75.60
52285;DHT22;38238;53.304;6.606;2022-09-02T11:05:54;27.00;75.50
52285;DHT22;38238;53.304;6.606;2022-09-02T11:08:38;27.10;73.80
52285;DHT22;38238;53.304;6.606;2022-09-02T11:11:18;27.10;73.00
52285;DHT22;38238;53.304;6.606;2022-09-02T11:19:07;27.00;72.60
52285;DHT22;38238;53.304;6.606;2022-09-02T11:21:47;27.10;73.00
52285;DHT22;38238;53.304;6.606;2022-09-02T11:24:18;27.20;71.40
52285;DHT22;38238;53.304;6.606;2022-09-02T11:29:46;27.10;69.60
52285;DHT22;38238;53.304;6.606;2022-09-02T11:32:21;27.20;70.50
52285;DHT22;38238;53.304;6.606;2022-09-02T11:34:51;27.20;70.60
52285;DHT22;38238;53.304;6.606;2022-09-02T11:37:32;27.20;69.90
52285;DHT22;38238;53.304;6.606;2022-09-02T11:40:08;27.20;69.90
52285;DHT22;38238;53.304;6.606;2022-09-02T11:48:23;27.30;69.80
52285;DHT22;38238;53.304;6.606;2022-09-02T11:53:54;27.60;68.70
52285;DHT22;38238;53.304;6.606;2022-09-02T11:56:26;27.70;69.00
52285;DHT22;38238;53.304;6.606;2022-09-02T11:58:53;27.70;68.00
52285;DHT22;38238;53.304;6.606;2022-09-02T12:01:34;27.40;68.50
52285;DHT22;38238;53.304;6.606;2022-09-02T12:04:06;27.40;68.30
52285;DHT22;38238;53.304;6.606;2022-09-02T12:09:48;27.40;68.90
52285;DHT22;38238;53.304;6.606;2022-09-02T12:15:10;27.60;67.00
52285;DHT22;38238;53.304;6.606;2022-09-02T12:18:11;27.60;67.10
52285;DHT22;38238;53.304;6.606;2022-09-02T12:23:07;27.60;67.00
52285;DHT22;38238;53.304;6.606;2022-09-02T12:26:01;27.60;66.80
52285;DHT22;38238;53.304;6.606;2022-09-02T12:28:29;27.60;67.20
52285;DHT22;38238;53.304;6.606;2022-09-02T12:33:46;27.20;67.60
52285;DHT22;38238;53.304;6.606;2022-09-02T12:44:45;26.20;68.70
52285;DHT22;38238;53.304;6.606;2022-09-02T12:52:48;25.80;69.20
52285;DHT22;38238;53.304;6.606;2022-09-02T12:55:29;25.70;68.90
52285;DHT22;38238;53.304;6.606;2022-09-02T13:06:48;25.80;69.80
52285;DHT22;38238;53.304;6.606;2022-09-02T13:22:27;25.80;68.60
52285;DHT22;38238;53.304;6.606;2022-09-02T13:27:48;26.00;68.50
52285;DHT22;38238;53.304;6.606;2022-09-02T13:33:13;25.90;68.10
52285;DHT22;38238;53.304;6.606;2022-09-02T13:35:39;26.00;67.90
52285;DHT22;38238;53.304;6.606;2022-09-02T13:38:09;25.90;67.60
52285;DHT22;38238;53.304;6.606;2022-09-02T13:40:38;26.00;67.90
52285;DHT22;38238;53.304;6.606;2022-09-02T13:45:40;26.10;67.70
52285;DHT22;38238;53.304;6.606;2022-09-02T13:48:09;26.10;67.30
52285;DHT22;38238;53.304;6.606;2022-09-02T13:50:40;26.10;67.90
52285;DHT22;38238;53.304;6.606;2022-09-02T13:53:07;26.20;67.50
52285;DHT22;38238;53.304;6.606;2022-09-02T13:55:33;26.30;68.10
52285;DHT22;38238;53.304;6.606;2022-09-02T13:58:03;26.30;67.60
52285;DHT22;38238;53.304;6.606;2022-09-02T14:00:33;26.30;67.50
52285;DHT22;38238;53.304;6.606;2022-09-02T14:05:32;26.40;66.60
52285;DHT22;38238;53.304;6.606;2022-09-02T14:08:01;26.40;66.70
52285;DHT22;38238;53.304;6.606;2022-09-02T14:10:29;26.60;66.60
52285;DHT22;38238;53.304;6.606;2022-09-02T14:12:56;26.70;66.30
52285;DHT22;38238;53.304;6.606;2022-09-02T14:15:28;26.70;66.10
52285;DHT22;38238;53.304;6.606;2022-09-02T14:18:14;26.70;66.30
52285;DHT22;38238;53.304;6.606;2022-09-02T14:23:27;26.70;65.00
52285;DHT22;38238;53.304;6.606;2022-09-02T14:25:58;26.70;65.80
52285;DHT22;38238;53.304;6.606;2022-09-02T14:28:26;26.70;65.40
52285;DHT22;38238;53.304;6.606;2022-09-02T14:31:04;26.70;65.60
52285;DHT22;38238;53.304;6.606;2022-09-02T14:33:39;26.60;65.30
52285;DHT22;38238;53.304;6.606;2022-09-02T14:43:48;26.70;65.00
52285;DHT22;38238;53.304;6.606;2022-09-02T14:51:37;26.50;65.00
52285;DHT22;38238;53.304;6.606;2022-09-02T14:54:05;26.50;64.90
52285;DHT22;38238;53.304;6.606;2022-09-02T14:56:47;26.50;64.60
52285;DHT22;38238;53.304;6.606;2022-09-02T14:59:13;26.50;64.10
52285;DHT22;38238;53.304;6.606;2022-09-02T15:01:40;26.50;64.40
52285;DHT22;38238;53.304;6.606;2022-09-02T15:04:08;26.50;64.50
52285;DHT22;38238;53.304;6.606;2022-09-02T15:06:34;26.50;64.40
52285;DHT22;38238;53.304;6.606;2022-09-02T15:09:00;26.50;64.30
52285;DHT22;38238;53.304;6.606;2022-09-02T15:11:26;26.50;63.80
52285;DHT22;38238;53.304;6.606;2022-09-02T15:13:52;26.40;64.10
52285;DHT22;38238;53.304;6.606;2022-09-02T15:16:17;26.30;64.30
52285;DHT22;38238;53.304;6.606;2022-09-02T15:18:43;26.30;63.90
52285;DHT22;38238;53.304;6.606;2022-09-02T15:21:09;26.30;63.70
52285;DHT22;38238;53.304;6.606;2022-09-02T15:23:35;26.20;63.60
52285;DHT22;38238;53.304;6.606;2022-09-02T15:26:05;26.10;63.90
52285;DHT22;38238;53.304;6.606;2022-09-02T15:28:31;26.00;64.00
52285;DHT22;38238;53.304;6.606;2022-09-02T15:30:59;26.00;63.90
52285;DHT22;38238;53.304;6.606;2022-09-02T15:33:25;26.00;64.20
52285;DHT22;38238;53.304;6.606;2022-09-02T15:35:52;26.00;64.00
52285;DHT22;38238;53.304;6.606;2022-09-02T15:38:18;26.00;63.80
52285;DHT22;38238;53.304;6.606;2022-09-02T15:40:43;26.00;64.00
52285;DHT22;38238;53.304;6.606;2022-09-02T15:43:12;26.00;64.10
52285;DHT22;38238;53.304;6.606;2022-09-02T15:45:44;26.00;63.80
52285;DHT22;38238;53.304;6.606;2022-09-02T15:48:11;25.90;64.20
52285;DHT22;38238;53.304;6.606;2022-09-02T15:50:37;25.90;64.20
52285;DHT22;38238;53.304;6.606;2022-09-02T15:53:03;25.80;64.30
52285;DHT22;38238;53.304;6.606;2022-09-02T15:55:31;25.80;64.70
52285;DHT22;38238;53.304;6.606;2022-09-02T15:57:57;25.70;64.60
52285;DHT22;38238;53.304;6.606;2022-09-02T16:00:24;25.60;64.80
52285;DHT22;38238;53.304;6.606;2022-09-02T16:02:51;25.60;64.90
52285;DHT22;38238;53.304;6.606;2022-09-02T16:05:17;25.50;64.70
52285;DHT22;38238;53.304;6.606;2022-09-02T16:07:43;25.40;64.90
52285;DHT22;38238;53.304;6.606;2022-09-02T16:10:09;25.40;65.30
52285;DHT22;38238;53.304;6.606;2022-09-02T16:12:35;25.20;65.40
52285;DHT22;38238;53.304;6.606;2022-09-02T16:15:01;25.20;65.50
52285;DHT22;38238;53.304;6.606;2022-09-02T16:17:27;25.10;65.90
52285;DHT22;38238;53.304;6.606;2022-09-02T16:19:53;25.10;66.20
52285;DHT22;38238;53.304;6.606;2022-09-02T16:22:18;25.00;66.50
52285;DHT22;38238;53.304;6.606;2022-09-02T16:24:44;24.90;66.80
52285;DHT22;38238;53.304;6.606;2022-09-02T16:27:11;24.90;67.10
52285;DHT22;38238;53.304;6.606;2022-09-02T16:29:36;24.80;67.30
52285;DHT22;38238;53.304;6.606;2022-09-02T16:32:04;24.80;67.70
52285;DHT22;38238;53.304;6.606;2022-09-02T16:34:30;24.70;68.00
52285;DHT22;38238;53.304;6.606;2022-09-02T16:36:55;24.60;68.00
52285;DHT22;38238;53.304;6.606;2022-09-02T16:39:21;24.60;67.90
52285;DHT22;38238;53.304;6.606;2022-09-02T16:41:51;24.40;68.00
52285;DHT22;38238;53.304;6.606;2022-09-02T16:44:23;24.40;68.30
52285;DHT22;38238;53.304;6.606;2022-09-02T16:46:50;24.40;68.50
52285;DHT22;38238;53.304;6.606;2022-09-02T16:49:19;24.30;68.50
52285;DHT22;38238;53.304;6.606;2022-09-02T16:51:45;24.30;68.60
52285;DHT22;38238;53.304;6.606;2022-09-02T16:54:12;24.20;68.80
52285;DHT22;38238;53.304;6.606;2022-09-02T16:56:37;24.10;69.00
52285;DHT22;38238;53.304;6.606;2022-09-02T16:59:06;24.10;69.20
52285;DHT22;38238;53.304;6.606;2022-09-02T17:01:32;24.00;70.00
52285;DHT22;38238;53.304;6.606;2022-09-02T17:03:58;24.00;69.50
52285;DHT22;38238;53.304;6.606;2022-09-02T17:06:25;24.00;69.80
52285;DHT22;38238;53.304;6.606;2022-09-02T17:08:50;23.90;70.00
52285;DHT22;38238;53.304;6.606;2022-09-02T17:11:31;23.90;70.30
52285;DHT22;38238;53.304;6.606;2022-09-02T17:14:06;23.90;70.50
52285;DHT22;38238;53.304;6.606;2022-09-02T17:16:43;23.90;70.60
52285;DHT22;38238;53.304;6.606;2022-09-02T17:19:09;23.80;70.70
52285;DHT22;38238;53.304;6.606;2022-09-02T17:21:40;23.80;71.00
52285;DHT22;38238;53.304;6.606;2022-09-02T17:24:08;23.70;71.00
52285;DHT22;38238;53.304;6.606;2022-09-02T17:26:36;23.70;71.30
52285;DHT22;38238;53.304;6.606;2022-09-02T17:29:08;23.60;71.30
52285;DHT22;38238;53.304;6.606;2022-09-02T17:31:34;23.50;71.40
52285;DHT22;38238;53.304;6.606;2022-09-02T17:34:03;23.40;71.50
52285;DHT22;38238;53.304;6.606;2022-09-02T17:36:31;23.40;71.70
52285;DHT22;38238;53.304;6.606;2022-09-02T17:39:03;23.30;72.00
52285;DHT22;38238;53.304;6.606;2022-09-02T17:41:29;23.30;72.10
52285;DHT22;38238;53.304;6.606;2022-09-02T17:44:14;23.20;72.30
52285;DHT22;38238;53.304;6.606;2022-09-02T17:46:41;23.10;72.60
52285;DHT22;38238;53.304;6.606;2022-09-02T17:49:09;23.10;72.70
52285;DHT22;38238;53.304;6.606;2022-09-02T17:51:34;23.00;72.70
52285;DHT22;38238;53.304;6.606;2022-09-02T17:54:00;23.00;72.90
52285;DHT22;38238;53.304;6.606;2022-09-02T18:05:21;22.60;73.70
52285;DHT22;38238;53.304;6.606;2022-09-02T18:10:37;22.40;74.30
52285;DHT22;38238;53.304;6.606;2022-09-02T18:13:11;22.30;74.60